Time;durP1;ratioP1;P1;durP2;ratioP2;P2;SDS_P1;SDS_P2;PMS_P1;PMS_P2;Temp;Humidity;BMP_temperature;BMP_pressure;BME280_temperature;BME280_humidity;BME280_pressure;Samples;Min_cycle;Max_cycle;Signal;HPM_P1;HPM_P2
2021/03/10 00:00:45;;;;;;;0.20;0.20;;;;;;;;;;5059418;28;20214;-75
2021/03/10 00:03:12;;;;;;;0.20;0.20;;;;;;;;;;5081099;28;20199;-76
2021/03/10 00:05:39;;;;;;;0.20;0.20;;;;;;;;;;5061170;28;20222;-76
2021/03/10 00:08:05;;;;;;;0.20;0.20;;;;;;;;;;5062699;28;20379;-77
2021/03/10 00:10:31;;;;;;;0.20;0.20;;;;;;;;;;5082358;28;20206;-76
2021/03/10 00:12:57;;;;;;;0.20;0.20;;;;;;;;;;5082934;28;20239;-75
2021/03/10 00:15:24;;;;;;;0.20;0.20;;;;;;;;;;5065396;28;20203;-76
2021/03/10 00:17:51;;;;;;;0.20;0.20;;;;;;;;;;5059096;28;20207;-75
2021/03/10 00:20:18;;;;;;;0.30;0.30;;;;;;;;;;5047711;28;20391;-76
2021/03/10 00:22:44;;;;;;;0.30;0.30;;;;;;;;;;5059509;28;20378;-75
2021/03/10 00:25:11;;;;;;;0.20;0.20;;;;;;;;;;5080197;28;20206;-76
2021/03/10 00:27:38;;;;;;;0.20;0.20;;;;;;;;;;5062991;28;20509;-76
2021/03/10 00:30:05;;;;;;;0.23;0.23;;;;;;;;;;5052158;28;20199;-75
2021/03/10 00:32:32;;;;;;;0.30;0.30;;;;;;;;;;5080980;28;20206;-75
2021/03/10 00:34:59;;;;;;;0.53;0.53;;;;;;;;;;5058923;28;20291;-77
2021/03/10 00:37:26;;;;;;;0.20;0.20;;;;;;;;;;5060883;28;20402;-74
2021/03/10 00:39:53;;;;;;;0.23;0.23;;;;;;;;;;5080396;28;20207;-76
2021/03/10 00:42:19;;;;;;;0.20;0.20;;;;;;;;;;5063881;28;20203;-75
2021/03/10 00:44:45;;;;;;;0.30;0.30;;;;;;;;;;5080735;28;20192;-76
2021/03/10 00:47:14;;;;;;;0.20;0.20;;;;;;;;;;5079478;28;20199;-76
2021/03/10 00:49:41;;;;;;;0.20;0.20;;;;;;;;;;5079394;28;20214;-76
2021/03/10 00:52:08;;;;;;;0.20;0.20;;;;;;;;;;5061726;28;20550;-75
2021/03/10 00:54:35;;;;;;;0.20;0.20;;;;;;;;;;5082222;28;20231;-75
2021/03/10 00:57:01;;;;;;;0.20;0.20;;;;;;;;;;5080728;28;20203;-76
2021/03/10 00:59:27;;;;;;;0.20;0.20;;;;;;;;;;5069847;28;20609;-75
2021/03/10 01:01:54;;;;;;;0.20;0.20;;;;;;;;;;5062566;28;20195;-75
2021/03/10 01:04:20;;;;;;;0.20;0.20;;;;;;;;;;5060330;28;20222;-76
2021/03/10 01:06:47;;;;;;;0.20;0.20;;;;;;;;;;5061359;28;20195;-76
2021/03/10 01:09:13;;;;;;;0.20;0.20;;;;;;;;;;5060044;28;20207;-76
2021/03/10 01:11:40;;;;;;;0.20;0.20;;;;;;;;;;5063179;28;20210;-75
2021/03/10 01:14:07;;;;;;;0.20;0.20;;;;;;;;;;5079593;28;20411;-75
2021/03/10 01:16:33;;;;;;;0.20;0.20;;;;;;;;;;5082649;28;20266;-75
2021/03/10 01:18:59;;;;;;;0.20;0.20;;;;;;;;;;5083969;28;20207;-76
2021/03/10 01:21:25;;;;;;;0.20;0.20;;;;;;;;;;5084490;28;20202;-77
2021/03/10 01:23:51;;;;;;;0.30;0.30;;;;;;;;;;5084092;28;20191;-75
2021/03/10 01:26:17;;;;;;;0.23;0.23;;;;;;;;;;5082020;28;20206;-76
2021/03/10 01:28:44;;;;;;;0.20;0.20;;;;;;;;;;5085121;28;20221;-75
2021/03/10 01:31:11;;;;;;;0.30;0.30;;;;;;;;;;5079674;28;20245;-75
2021/03/10 01:33:37;;;;;;;0.20;0.20;;;;;;;;;;5064480;28;20412;-74
2021/03/10 01:36:04;;;;;;;0.20;0.20;;;;;;;;;;5062152;28;20211;-76
2021/03/10 01:38:30;;;;;;;0.20;0.20;;;;;;;;;;5066114;28;20195;-76
2021/03/10 01:40:56;;;;;;;0.20;0.20;;;;;;;;;;5066642;28;20506;-76
2021/03/10 01:43:22;;;;;;;0.23;0.23;;;;;;;;;;5083840;28;20199;-76
2021/03/10 01:45:49;;;;;;;0.20;0.20;;;;;;;;;;5084385;28;20200;-76
2021/03/10 01:48:19;;;;;;;0.20;0.20;;;;;;;;;;5059438;28;20257;-75
2021/03/10 01:50:46;;;;;;;0.20;0.20;;;;;;;;;;5079275;28;20199;-75
2021/03/10 01:53:12;;;;;;;0.20;0.20;;;;;;;;;;5061251;28;20261;-75
2021/03/10 01:55:38;;;;;;;0.20;0.20;;;;;;;;;;5064182;28;20203;-76
2021/03/10 01:58:05;;;;;;;0.20;0.20;;;;;;;;;;5075169;28;20207;-75
2021/03/10 02:00:31;;;;;;;0.20;0.20;;;;;;;;;;5079825;28;20211;-75
2021/03/10 02:02:59;;;;;;;0.20;0.20;;;;;;;;;;5066828;28;20195;-76
2021/03/10 02:05:25;;;;;;;0.30;0.30;;;;;;;;;;5065414;28;20294;-75
2021/03/10 02:07:58;;;;;;;0.30;0.30;;;;;;;;;;5086471;28;20526;-77
2021/03/10 02:10:28;;;;;;;0.20;0.20;;;;;;;;;;5083410;28;20206;-75
2021/03/10 02:13:00;;;;;;;0.30;0.30;;;;;;;;;;5072103;28;20199;-76
2021/03/10 02:15:29;;;;;;;2.70;2.60;;;;;;;;;;5084969;28;20203;-76
2021/03/10 02:17:58;;;;;;;0.30;0.30;;;;;;;;;;5079832;28;20196;-76
2021/03/10 02:20:33;;;;;;;0.20;0.20;;;;;;;;;;5080640;28;20517;-76
2021/03/10 02:23:20;;;;;;;0.20;0.20;;;;;;;;;;5064828;28;20367;-77
2021/03/10 02:25:50;;;;;;;0.30;0.30;;;;;;;;;;5084922;28;20215;-76
2021/03/10 02:28:17;;;;;;;0.30;0.30;;;;;;;;;;5077340;28;20214;-76
2021/03/10 02:30:45;;;;;;;0.23;0.23;;;;;;;;;;5082955;28;20203;-76
2021/03/10 02:33:15;;;;;;;0.20;0.20;;;;;;;;;;5062283;28;20258;-76
2021/03/10 02:35:42;;;;;;;0.27;0.27;;;;;;;;;;5070463;28;20199;-75
2021/03/10 02:38:10;;;;;;;0.30;0.30;;;;;;;;;;5081350;28;20253;-75
2021/03/10 02:40:38;;;;;;;0.30;0.30;;;;;;;;;;5065418;28;20222;-77
2021/03/10 02:43:05;;;;;;;0.20;0.20;;;;;;;;;;5085035;28;20559;-76
2021/03/10 02:45:33;;;;;;;0.30;0.30;;;;;;;;;;5067175;28;20403;-76
2021/03/10 02:48:00;;;;;;;0.30;0.30;;;;;;;;;;5052367;28;20204;-76
2021/03/10 02:50:27;;;;;;;0.20;0.20;;;;;;;;;;5065414;28;20245;-76
2021/03/10 02:52:54;;;;;;;0.30;0.30;;;;;;;;;;5062365;28;20200;-76
2021/03/10 02:55:20;;;;;;;0.20;0.20;;;;;;;;;;5081381;28;20199;-77
2021/03/10 02:57:47;;;;;;;0.20;0.20;;;;;;;;;;5062323;28;20416;-76
2021/03/10 03:00:15;;;;;;;0.23;0.23;;;;;;;;;;5080747;28;20203;-76
2021/03/10 03:02:42;;;;;;;0.20;0.20;;;;;;;;;;5082123;28;20221;-76
2021/03/10 03:05:09;;;;;;;0.30;0.30;;;;;;;;;;5064938;28;20227;-75
2021/03/10 03:07:37;;;;;;;0.20;0.20;;;;;;;;;;5049988;28;20191;-76
2021/03/10 03:10:04;;;;;;;0.23;0.23;;;;;;;;;;5072815;28;20206;-76
2021/03/10 03:12:30;;;;;;;0.30;0.30;;;;;;;;;;5077974;28;20495;-76
2021/03/10 03:14:57;;;;;;;0.20;0.20;;;;;;;;;;5060946;28;20219;-75
2021/03/10 03:17:24;;;;;;;0.20;0.20;;;;;;;;;;5080310;28;20199;-76
2021/03/10 03:19:51;;;;;;;0.50;0.50;;;;;;;;;;5085085;28;20199;-76
2021/03/10 03:22:17;;;;;;;0.20;0.20;;;;;;;;;;5058901;28;20312;-75
2021/03/10 03:24:44;;;;;;;0.20;0.20;;;;;;;;;;5064986;28;20191;-76
2021/03/10 03:27:11;;;;;;;0.30;0.30;;;;;;;;;;5060866;28;20200;-75
2021/03/10 03:29:37;;;;;;;0.20;0.20;;;;;;;;;;5077105;28;20207;-76
2021/03/10 03:32:04;;;;;;;0.20;0.20;;;;;;;;;;5061575;28;20199;-76
2021/03/10 03:34:32;;;;;;;0.30;0.30;;;;;;;;;;5077996;28;20218;-75
2021/03/10 03:36:59;;;;;;;0.30;0.30;;;;;;;;;;5060633;28;20203;-76
2021/03/10 03:39:25;;;;;;;0.20;0.20;;;;;;;;;;5062010;28;20495;-76
2021/03/10 03:41:52;;;;;;;0.30;0.30;;;;;;;;;;5072814;28;20208;-75
2021/03/10 03:44:19;;;;;;;0.30;0.30;;;;;;;;;;5060748;28;20223;-75
2021/03/10 03:46:45;;;;;;;0.27;0.27;;;;;;;;;;5064305;28;20270;-75
2021/03/10 03:49:11;;;;;;;0.20;0.20;;;;;;;;;;5080358;28;20218;-77
2021/03/10 03:51:38;;;;;;;0.30;0.30;;;;;;;;;;5063495;28;20236;-75
2021/03/10 03:54:05;;;;;;;0.23;0.23;;;;;;;;;;5057993;28;20240;-75
2021/03/10 03:56:32;;;;;;;0.30;0.30;;;;;;;;;;5077947;28;20203;-77
2021/03/10 03:58:58;;;;;;;0.20;0.20;;;;;;;;;;5080395;28;20203;-76
2021/03/10 04:01:25;;;;;;;0.23;0.23;;;;;;;;;;5080737;28;20207;-76
2021/03/10 04:03:51;;;;;;;0.20;0.20;;;;;;;;;;5080036;28;20227;-77
2021/03/10 04:06:17;;;;;;;0.30;0.30;;;;;;;;;;5073393;28;20203;-76
2021/03/10 04:08:44;;;;;;;0.30;0.30;;;;;;;;;;5063620;28;20228;-76
2021/03/10 04:11:11;;;;;;;0.20;0.20;;;;;;;;;;5063796;28;20207;-76
2021/03/10 04:13:37;;;;;;;0.30;0.30;;;;;;;;;;5078100;28;20230;-75
2021/03/10 04:16:03;;;;;;;0.30;0.30;;;;;;;;;;5054568;28;20199;-76
2021/03/10 04:18:30;;;;;;;1.80;1.80;;;;;;;;;;5081541;28;20202;-76
2021/03/10 04:20:55;;;;;;;0.20;0.20;;;;;;;;;;5070120;28;20395;-76
2021/03/10 04:23:22;;;;;;;0.30;0.30;;;;;;;;;;5078769;28;20214;-77
2021/03/10 04:25:48;;;;;;;0.30;0.30;;;;;;;;;;5060727;28;20209;-76
2021/03/10 04:28:15;;;;;;;0.30;0.30;;;;;;;;;;5060872;28;20228;-75
2021/03/10 04:30:42;;;;;;;0.30;0.30;;;;;;;;;;5077274;28;20206;-77
2021/03/10 04:33:08;;;;;;;0.30;0.30;;;;;;;;;;5060280;28;20206;-76
2021/03/10 04:35:34;;;;;;;0.30;0.30;;;;;;;;;;5061716;28;20490;-76
2021/03/10 04:38:00;;;;;;;0.30;0.30;;;;;;;;;;5059334;28;20206;-75
2021/03/10 04:40:27;;;;;;;0.30;0.30;;;;;;;;;;5064107;28;20209;-75
2021/03/10 04:42:53;;;;;;;0.30;0.30;;;;;;;;;;5063392;28;20429;-75
2021/03/10 04:45:20;;;;;;;0.30;0.30;;;;;;;;;;5063360;28;20199;-76
2021/03/10 04:47:47;;;;;;;0.30;0.30;;;;;;;;;;5049405;28;20204;-76
2021/03/10 04:50:14;;;;;;;0.30;0.30;;;;;;;;;;5080274;28;20203;-75
2021/03/10 04:52:40;;;;;;;0.30;0.30;;;;;;;;;;5053890;28;20206;-77
2021/03/10 04:55:07;;;;;;;0.30;0.30;;;;;;;;;;5062661;28;20218;-73
2021/03/10 04:57:33;;;;;;;0.30;0.30;;;;;;;;;;5081569;28;20213;-75
2021/03/10 05:00:00;;;;;;;0.30;0.30;;;;;;;;;;5063816;28;20431;-76
2021/03/10 05:02:26;;;;;;;0.30;0.30;;;;;;;;;;5080440;28;20213;-77
2021/03/10 05:04:53;;;;;;;0.30;0.30;;;;;;;;;;5080093;28;20225;-75
2021/03/10 05:07:19;;;;;;;0.23;0.23;;;;;;;;;;5047131;28;20208;-75
2021/03/10 05:09:45;;;;;;;0.40;0.40;;;;;;;;;;5045176;28;20206;-76
2021/03/10 05:12:12;;;;;;;0.20;0.20;;;;;;;;;;5059440;28;20245;-76
2021/03/10 05:14:38;;;;;;;0.20;0.20;;;;;;;;;;5045424;28;20223;-76
2021/03/10 05:17:05;;;;;;;0.30;0.30;;;;;;;;;;5056045;28;20221;-76
2021/03/10 05:19:32;;;;;;;0.30;0.30;;;;;;;;;;5074114;28;20199;-76
2021/03/10 05:21:58;;;;;;;0.20;0.20;;;;;;;;;;5057214;28;20200;-77
2021/03/10 05:24:24;;;;;;;0.30;0.30;;;;;;;;;;5077136;28;20199;-76
2021/03/10 05:26:50;;;;;;;0.30;0.30;;;;;;;;;;5078399;28;20222;-76
2021/03/10 05:29:16;;;;;;;0.30;0.30;;;;;;;;;;5079989;28;20230;-77
2021/03/10 05:31:42;;;;;;;0.30;0.30;;;;;;;;;;5062662;28;20412;-77
2021/03/10 05:34:09;;;;;;;0.30;0.30;;;;;;;;;;5062478;28;20561;-76
2021/03/10 05:36:36;;;;;;;0.50;0.50;;;;;;;;;;5077055;28;20214;-77
2021/03/10 05:39:03;;;;;;;0.30;0.30;;;;;;;;;;5051554;28;20222;-75
2021/03/10 05:41:29;;;;;;;0.30;0.30;;;;;;;;;;5079291;28;20243;-76
2021/03/10 05:43:55;;;;;;;0.30;0.30;;;;;;;;;;5083273;28;20203;-76
2021/03/10 05:46:21;;;;;;;0.30;0.30;;;;;;;;;;5080770;28;20195;-75
2021/03/10 05:48:48;;;;;;;0.30;0.30;;;;;;;;;;5071501;28;20209;-75
2021/03/10 05:51:14;;;;;;;0.63;0.63;;;;;;;;;;5063343;28;20195;-76
2021/03/10 05:53:43;;;;;;;0.30;0.30;;;;;;;;;;5076413;28;20223;-74
2021/03/10 05:56:10;;;;;;;0.30;0.30;;;;;;;;;;5080925;28;20253;-76
2021/03/10 05:58:36;;;;;;;0.30;0.30;;;;;;;;;;5063027;28;20482;-76
2021/03/10 06:01:03;;;;;;;0.30;0.30;;;;;;;;;;5063204;28;20205;-77
2021/03/10 06:03:29;;;;;;;0.30;0.30;;;;;;;;;;5048560;28;20217;-76
2021/03/10 06:05:58;;;;;;;0.20;0.20;;;;;;;;;;5066306;28;20207;-75
2021/03/10 06:08:26;;;;;;;0.30;0.30;;;;;;;;;;5048576;28;20207;-77
2021/03/10 06:10:54;;;;;;;0.30;0.30;;;;;;;;;;5072360;28;20253;-76
2021/03/10 06:13:21;;;;;;;0.33;0.33;;;;;;;;;;5055726;28;20227;-77
2021/03/10 06:15:47;;;;;;;0.40;0.40;;;;;;;;;;5079028;28;20201;-76
2021/03/10 06:18:27;;;;;;;0.30;0.30;;;;;;;;;;5061048;28;20210;-77
2021/03/10 06:21:04;;;;;;;0.30;0.30;;;;;;;;;;5057527;28;20394;-76
2021/03/10 06:23:30;;;;;;;0.30;0.30;;;;;;;;;;5060926;28;20199;-75
2021/03/10 06:25:57;;;;;;;0.30;0.30;;;;;;;;;;5076411;28;20249;-76
2021/03/10 06:28:33;;;;;;;0.30;0.30;;;;;;;;;;5068125;28;20522;-77
2021/03/10 06:30:59;;;;;;;0.30;0.30;;;;;;;;;;5079456;28;20209;-75
2021/03/10 06:33:25;;;;;;;0.30;0.30;;;;;;;;;;5060804;28;20231;-76
2021/03/10 06:35:51;;;;;;;0.30;0.30;;;;;;;;;;5073538;28;20207;-75
2021/03/10 06:38:18;;;;;;;0.20;0.20;;;;;;;;;;5073786;28;20203;-76
2021/03/10 06:40:48;;;;;;;0.20;0.20;;;;;;;;;;5058295;28;20210;-78
2021/03/10 06:43:15;;;;;;;0.33;0.33;;;;;;;;;;5077976;28;20203;-76
2021/03/10 06:45:42;;;;;;;4.40;4.27;;;;;;;;;;5072216;28;20211;-76
2021/03/10 06:48:15;;;;;;;0.33;0.33;;;;;;;;;;5077215;28;20362;-74
2021/03/10 06:50:42;;;;;;;0.30;0.30;;;;;;;;;;5069242;28;20206;-75
2021/03/10 06:53:08;;;;;;;0.30;0.30;;;;;;;;;;5073864;28;20195;-76
2021/03/10 06:55:40;;;;;;;0.30;0.30;;;;;;;;;;5076965;28;20202;-75
2021/03/10 06:58:08;;;;;;;0.30;0.30;;;;;;;;;;5057232;28;20231;-76
2021/03/10 07:00:35;;;;;;;1.17;1.17;;;;;;;;;;5061505;28;20203;-75
2021/03/10 07:03:02;;;;;;;0.30;0.30;;;;;;;;;;5081210;28;20207;-77
2021/03/10 07:05:28;;;;;;;0.30;0.30;;;;;;;;;;5082141;28;20317;-77
2021/03/10 07:07:54;;;;;;;0.20;0.20;;;;;;;;;;5079977;28;20324;-76
2021/03/10 07:10:21;;;;;;;0.30;0.30;;;;;;;;;;5065991;28;20210;-76
2021/03/10 07:12:47;;;;;;;0.30;0.30;;;;;;;;;;5053875;28;20495;-74
2021/03/10 07:15:14;;;;;;;0.30;0.30;;;;;;;;;;5077726;28;20337;-74
2021/03/10 07:17:42;;;;;;;0.30;0.30;;;;;;;;;;5064212;28;20278;-75
2021/03/10 07:20:09;;;;;;;0.20;0.20;;;;;;;;;;5079766;28;20207;-74
2021/03/10 07:22:36;;;;;;;0.63;0.63;;;;;;;;;;5054643;28;20209;-76
2021/03/10 07:25:04;;;;;;;0.20;0.20;;;;;;;;;;5073452;28;20261;-74
2021/03/10 07:27:35;;;;;;;0.27;0.27;;;;;;;;;;5080090;28;20207;-75
2021/03/10 07:30:03;;;;;;;0.27;0.27;;;;;;;;;;5076726;28;20206;-75
2021/03/10 07:32:29;;;;;;;0.30;0.30;;;;;;;;;;5083624;28;20206;-74
2021/03/10 07:35:03;;;;;;;0.20;0.20;;;;;;;;;;5070249;28;20258;-76
2021/03/10 07:37:30;;;;;;;0.30;0.30;;;;;;;;;;5080021;28;20206;-77
2021/03/10 07:40:06;;;;;;;0.20;0.20;;;;;;;;;;5053902;28;20276;-77
2021/03/10 07:42:32;;;;;;;0.20;0.20;;;;;;;;;;5068231;28;20210;-75
2021/03/10 07:44:59;;;;;;;0.20;0.20;;;;;;;;;;5081664;28;20199;-76
2021/03/10 07:47:24;;;;;;;0.20;0.20;;;;;;;;;;5085195;28;20258;-76
2021/03/10 07:49:56;;;;;;;0.20;0.20;;;;;;;;;;5081564;28;20212;-75
2021/03/10 07:52:23;;;;;;;0.20;0.20;;;;;;;;;;5071756;28;20491;-74
2021/03/10 07:54:56;;;;;;;0.10;0.10;;;;;;;;;;5076413;28;20231;-76
2021/03/10 07:57:22;;;;;;;0.10;0.10;;;;;;;;;;5080127;28;20213;-76
2021/03/10 07:59:52;;;;;;;0.10;0.10;;;;;;;;;;5059099;28;20200;-75
2021/03/10 08:02:18;;;;;;;0.10;0.10;;;;;;;;;;5073979;28;20204;-74
2021/03/10 08:04:53;;;;;;;0.10;0.10;;;;;;;;;;5059347;28;20256;-76
2021/03/10 08:07:20;;;;;;;0.10;0.10;;;;;;;;;;5078436;28;20261;-76
2021/03/10 08:09:49;;;;;;;0.10;0.10;;;;;;;;;;5080109;28;20222;-75
2021/03/10 08:12:18;;;;;;;0.10;0.10;;;;;;;;;;5090298;28;20205;-76
2021/03/10 08:14:45;;;;;;;2.70;2.60;;;;;;;;;;5064467;28;20262;-76
2021/03/10 08:17:20;;;;;;;0.10;0.10;;;;;;;;;;5084375;28;20210;-76
2021/03/10 08:19:50;;;;;;;0.10;0.10;;;;;;;;;;5080832;28;20252;-75
2021/03/10 08:22:16;;;;;;;0.10;0.10;;;;;;;;;;5077465;28;20403;-75
2021/03/10 08:24:43;;;;;;;0.30;0.30;;;;;;;;;;5080274;28;20403;-76
2021/03/10 08:27:10;;;;;;;0.10;0.10;;;;;;;;;;5063666;28;20236;-75
2021/03/10 08:29:45;;;;;;;0.10;0.10;;;;;;;;;;5058132;28;20208;-74
2021/03/10 08:32:12;;;;;;;0.10;0.10;;;;;;;;;;5075059;28;20222;-74
2021/03/10 08:34:39;;;;;;;0.10;0.10;;;;;;;;;;5077978;28;20243;-74
2021/03/10 08:37:08;;;;;;;0.10;0.10;;;;;;;;;;5051128;28;20199;-73
2021/03/10 08:39:40;;;;;;;0.10;0.10;;;;;;;;;;5078450;28;20195;-75
2021/03/10 08:42:06;;;;;;;0.10;0.10;;;;;;;;;;5082560;28;20205;-74
2021/03/10 08:44:39;;;;;;;0.10;0.10;;;;;;;;;;5081562;28;20204;-73
2021/03/10 08:47:10;;;;;;;0.00;0.00;;;;;;;;;;5072372;28;20280;-74
2021/03/10 08:49:36;;;;;;;0.07;0.07;;;;;;;;;;5080965;28;20212;-75
2021/03/10 08:52:04;;;;;;;0.10;0.10;;;;;;;;;;5081531;28;20196;-75
2021/03/10 08:54:30;;;;;;;0.10;0.10;;;;;;;;;;5055904;28;20398;-75
2021/03/10 08:56:56;;;;;;;0.10;0.10;;;;;;;;;;5071269;28;20231;-76
2021/03/10 08:59:33;;;;;;;0.05;0.05;;;;;;;;;;5073142;28;20196;-76
2021/03/10 09:02:01;;;;;;;0.20;0.20;;;;;;;;;;5071887;28;20269;-76
2021/03/10 09:04:27;;;;;;;0.10;0.10;;;;;;;;;;5058990;28;20220;-75
2021/03/10 09:06:55;;;;;;;0.35;0.35;;;;;;;;;;5077522;28;20272;-76
2021/03/10 09:09:22;;;;;;;0.10;0.10;;;;;;;;;;5075040;28;20196;-75
2021/03/10 09:11:49;;;;;;;0.80;0.45;;;;;;;;;;5059697;28;20210;-75
2021/03/10 09:14:15;;;;;;;0.30;0.30;;;;;;;;;;5080780;28;20225;-75
2021/03/10 09:16:55;;;;;;;0.10;0.10;;;;;;;;;;5057291;28;20289;-75
2021/03/10 09:19:32;;;;;;;0.80;0.80;;;;;;;;;;5077599;28;20394;-76
2021/03/10 09:22:09;;;;;;;0.00;0.00;;;;;;;;;;5074468;28;20530;-75
2021/03/10 09:24:45;;;;;;;0.30;0.30;;;;;;;;;;5074066;28;20260;-75
2021/03/10 09:27:15;;;;;;;0.10;0.10;;;;;;;;;;5078858;28;20507;-76
2021/03/10 09:29:42;;;;;;;0.10;0.10;;;;;;;;;;5076642;28;20244;-76
2021/03/10 09:32:09;;;;;;;0.20;0.20;;;;;;;;;;5081767;28;20273;-75
2021/03/10 09:34:37;;;;;;;0.10;0.10;;;;;;;;;;5057627;28;20284;-76
2021/03/10 09:37:06;;;;;;;0.10;0.10;;;;;;;;;;5081256;28;20236;-75
2021/03/10 09:39:37;;;;;;;0.10;0.10;;;;;;;;;;5078592;28;20199;-75
2021/03/10 09:42:04;;;;;;;0.00;0.00;;;;;;;;;;5084863;28;20213;-75
2021/03/10 09:44:40;;;;;;;0.00;0.00;;;;;;;;;;5058415;28;20205;-75
2021/03/10 09:47:11;;;;;;;0.08;0.08;;;;;;;;;;5086906;28;20209;-74
2021/03/10 09:49:44;;;;;;;0.03;0.03;;;;;;;;;;5083544;28;20520;-73
2021/03/10 09:52:11;;;;;;;0.00;0.00;;;;;;;;;;5080054;28;20291;-73
2021/03/10 09:54:47;;;;;;;0.10;0.10;;;;;;;;;;5059750;28;20545;-71
2021/03/10 09:57:19;;;;;;;0.10;0.10;;;;;;;;;;5076364;28;20204;-74
2021/03/10 09:59:45;;;;;;;0.00;0.00;;;;;;;;;;5078675;28;20483;-71
2021/03/10 10:02:14;;;;;;;0.00;0.00;;;;;;;;;;5059169;28;20199;-75
2021/03/10 10:04:40;;;;;;;0.10;0.10;;;;;;;;;;5069759;28;20224;-74
2021/03/10 10:07:08;;;;;;;0.08;0.08;;;;;;;;;;5070312;28;20261;-71
2021/03/10 10:09:35;;;;;;;0.10;0.10;;;;;;;;;;5064202;28;20208;-74
2021/03/10 10:12:01;;;;;;;0.00;0.00;;;;;;;;;;5063535;28;20203;-74
2021/03/10 10:14:28;;;;;;;0.10;0.10;;;;;;;;;;5073388;28;20215;-73
2021/03/10 10:16:54;;;;;;;0.10;0.10;;;;;;;;;;5062355;28;20270;-74
2021/03/10 10:19:20;;;;;;;0.10;0.10;;;;;;;;;;5077055;28;20286;-74
2021/03/10 10:21:48;;;;;;;0.00;0.00;;;;;;;;;;5056792;28;20242;-74
2021/03/10 10:24:15;;;;;;;0.00;0.00;;;;;;;;;;5058702;28;20191;-73
2021/03/10 10:26:41;;;;;;;0.10;0.10;;;;;;;;;;5080766;28;20206;-73
2021/03/10 10:29:07;;;;;;;0.03;0.03;;;;;;;;;;5076019;28;20298;-73
2021/03/10 10:31:35;;;;;;;0.10;0.10;;;;;;;;;;5065198;28;20208;-74
2021/03/10 10:34:01;;;;;;;0.10;0.10;;;;;;;;;;5055992;28;20283;-75
2021/03/10 10:36:28;;;;;;;0.10;0.10;;;;;;;;;;5054739;28;20201;-75
2021/03/10 10:38:54;;;;;;;0.10;0.10;;;;;;;;;;5073008;28;20540;-76
2021/03/10 10:41:21;;;;;;;0.10;0.10;;;;;;;;;;5083384;28;20201;-75
2021/03/10 10:43:47;;;;;;;0.10;0.10;;;;;;;;;;5058088;28;20229;-74
2021/03/10 10:46:13;;;;;;;0.03;0.03;;;;;;;;;;5081404;28;20363;-74
2021/03/10 10:48:40;;;;;;;0.10;0.10;;;;;;;;;;5081758;28;20425;-75
2021/03/10 10:51:06;;;;;;;0.10;0.10;;;;;;;;;;5072110;28;20207;-75
2021/03/10 10:53:32;;;;;;;0.10;0.10;;;;;;;;;;5054419;28;20216;-76
2021/03/10 10:55:59;;;;;;;0.10;0.10;;;;;;;;;;5066598;28;20196;-76
2021/03/10 10:58:26;;;;;;;0.10;0.10;;;;;;;;;;5063508;28;20202;-76
2021/03/10 11:00:53;;;;;;;0.10;0.10;;;;;;;;;;5075724;28;20204;-75
2021/03/10 11:03:19;;;;;;;0.10;0.10;;;;;;;;;;5063787;28;20218;-78
2021/03/10 11:05:46;;;;;;;0.10;0.10;;;;;;;;;;5062864;28;20534;-73
2021/03/10 11:08:12;;;;;;;0.10;0.10;;;;;;;;;;5059523;28;20207;-74
2021/03/10 11:10:39;;;;;;;0.10;0.10;;;;;;;;;;5062184;28;20245;-76
2021/03/10 11:13:06;;;;;;;0.10;0.10;;;;;;;;;;5065384;28;20254;-74
2021/03/10 11:15:33;;;;;;;0.10;0.10;;;;;;;;;;5081811;28;20404;-74
2021/03/10 11:18:00;;;;;;;0.10;0.10;;;;;;;;;;5062296;28;20199;-75
2021/03/10 11:20:27;;;;;;;0.33;0.33;;;;;;;;;;5076901;28;20235;-74
2021/03/10 11:22:54;;;;;;;0.10;0.10;;;;;;;;;;5065599;28;20200;-75
2021/03/10 11:25:20;;;;;;;0.10;0.10;;;;;;;;;;5062462;28;20201;-74
2021/03/10 11:27:47;;;;;;;0.10;0.10;;;;;;;;;;5061801;28;20248;-75
2021/03/10 11:30:14;;;;;;;0.03;0.03;;;;;;;;;;5079355;28;20215;-74
2021/03/10 11:32:42;;;;;;;0.10;0.10;;;;;;;;;;5065504;28;20267;-75
2021/03/10 11:35:09;;;;;;;1.60;1.50;;;;;;;;;;5080702;28;20218;-69
2021/03/10 11:37:36;;;;;;;0.10;0.10;;;;;;;;;;5080870;28;20231;-67
2021/03/10 11:40:03;;;;;;;0.10;0.10;;;;;;;;;;5046320;28;20207;-68
2021/03/10 11:42:30;;;;;;;0.00;0.00;;;;;;;;;;5058494;28;20540;-71
2021/03/10 11:44:56;;;;;;;0.10;0.10;;;;;;;;;;5063521;28;20191;-70
2021/03/10 11:47:23;;;;;;;0.10;0.10;;;;;;;;;;5062604;28;20365;-70
2021/03/10 11:49:50;;;;;;;0.10;0.10;;;;;;;;;;5070580;28;20234;-68
2021/03/10 11:52:17;;;;;;;0.10;0.10;;;;;;;;;;5057695;28;20489;-69
2021/03/10 11:54:47;;;;;;;0.10;0.10;;;;;;;;;;5056246;28;20225;-70
2021/03/10 11:57:13;;;;;;;0.00;0.00;;;;;;;;;;5072635;28;20211;-67
2021/03/10 11:59:40;;;;;;;0.10;0.10;;;;;;;;;;5051116;28;20197;-68
2021/03/10 12:02:06;;;;;;;0.03;0.03;;;;;;;;;;5055088;28;20196;-70
2021/03/10 12:04:33;;;;;;;0.10;0.10;;;;;;;;;;5058011;28;20228;-68
2021/03/10 12:07:01;;;;;;;0.00;0.00;;;;;;;;;;5049377;28;20219;-69
2021/03/10 12:09:27;;;;;;;0.03;0.03;;;;;;;;;;5052478;28;20225;-69
2021/03/10 12:11:54;;;;;;;0.10;0.10;;;;;;;;;;5058839;28;20201;-68
2021/03/10 12:14:21;;;;;;;0.10;0.10;;;;;;;;;;5059907;28;20225;-69
2021/03/10 12:16:48;;;;;;;2.63;2.53;;;;;;;;;;5059568;28;20515;-69
2021/03/10 12:19:14;;;;;;;0.07;0.07;;;;;;;;;;5075895;28;20205;-69
2021/03/10 12:21:41;;;;;;;0.10;0.10;;;;;;;;;;5074045;28;20260;-70
2021/03/10 12:24:09;;;;;;;0.10;0.10;;;;;;;;;;5060503;28;20406;-70
2021/03/10 12:26:36;;;;;;;0.00;0.00;;;;;;;;;;5074906;28;20226;-69
2021/03/10 12:29:03;;;;;;;0.10;0.10;;;;;;;;;;5052717;28;20364;-69
2021/03/10 12:31:29;;;;;;;0.00;0.00;;;;;;;;;;5062863;28;20274;-69
2021/03/10 12:33:56;;;;;;;0.10;0.10;;;;;;;;;;5060125;28;20402;-68
2021/03/10 12:36:23;;;;;;;0.10;0.10;;;;;;;;;;5062705;28;20209;-69
2021/03/10 12:38:49;;;;;;;2.03;1.50;;;;;;;;;;5071768;28;20236;-69
2021/03/10 12:41:17;;;;;;;0.10;0.10;;;;;;;;;;5062068;28;20206;-69
2021/03/10 12:43:43;;;;;;;0.10;0.10;;;;;;;;;;5078743;28;20213;-70
2021/03/10 12:46:10;;;;;;;0.10;0.10;;;;;;;;;;5060685;28;20542;-68
2021/03/10 12:48:36;;;;;;;0.10;0.10;;;;;;;;;;5057524;28;20221;-69
2021/03/10 12:51:03;;;;;;;0.20;0.20;;;;;;;;;;5062619;28;20512;-68
2021/03/10 12:53:29;;;;;;;0.10;0.10;;;;;;;;;;5070985;28;20511;-66
2021/03/10 12:55:55;;;;;;;0.10;0.10;;;;;;;;;;5080453;28;20232;-70
2021/03/10 12:58:23;;;;;;;0.10;0.10;;;;;;;;;;5053330;28;20306;-68
2021/03/10 13:00:50;;;;;;;0.10;0.10;;;;;;;;;;5055630;28;20480;-69
2021/03/10 13:03:16;;;;;;;0.10;0.10;;;;;;;;;;5060490;28;20199;-68
2021/03/10 13:05:44;;;;;;;0.10;0.10;;;;;;;;;;5056783;28;20237;-68
2021/03/10 13:08:10;;;;;;;0.10;0.10;;;;;;;;;;5061307;28;20540;-68
2021/03/10 13:10:37;;;;;;;0.20;0.20;;;;;;;;;;5058348;28;20198;-69
2021/03/10 13:13:05;;;;;;;0.10;0.10;;;;;;;;;;5057138;28;20197;-68
2021/03/10 13:15:32;;;;;;;0.10;0.10;;;;;;;;;;5062475;28;20228;-68
2021/03/10 13:17:59;;;;;;;0.10;0.10;;;;;;;;;;5053395;28;20213;-68
2021/03/10 13:20:26;;;;;;;0.10;0.10;;;;;;;;;;5058334;28;20231;-70
2021/03/10 13:22:52;;;;;;;1.07;1.07;;;;;;;;;;5061785;28;20210;-69
2021/03/10 13:25:19;;;;;;;0.10;0.10;;;;;;;;;;5051799;28;20391;-69
2021/03/10 13:27:46;;;;;;;0.10;0.10;;;;;;;;;;5054508;28;20230;-69
2021/03/10 13:30:13;;;;;;;1.30;1.20;;;;;;;;;;5080688;28;20217;-69
2021/03/10 13:32:41;;;;;;;0.10;0.10;;;;;;;;;;5080244;28;20202;-70
2021/03/10 13:35:09;;;;;;;0.10;0.10;;;;;;;;;;5058950;28;20239;-70
2021/03/10 13:37:36;;;;;;;0.10;0.10;;;;;;;;;;5061164;28;20243;-68
2021/03/10 13:40:03;;;;;;;0.10;0.10;;;;;;;;;;5061814;28;20408;-69
2021/03/10 13:42:30;;;;;;;0.20;0.20;;;;;;;;;;5058187;28;20204;-68
2021/03/10 13:44:56;;;;;;;0.10;0.10;;;;;;;;;;5056865;28;20480;-69
2021/03/10 13:47:23;;;;;;;2.67;0.67;;;;;;;;;;5071061;28;20220;-68
2021/03/10 13:49:50;;;;;;;0.20;0.20;;;;;;;;;;5060754;28;20474;-69
2021/03/10 13:52:17;;;;;;;0.17;0.17;;;;;;;;;;5062984;28;20266;-69
2021/03/10 13:54:45;;;;;;;0.20;0.20;;;;;;;;;;5062595;28;20221;-69
2021/03/10 13:57:11;;;;;;;0.10;0.10;;;;;;;;;;5061925;28;20418;-69
2021/03/10 13:59:38;;;;;;;0.10;0.10;;;;;;;;;;5061947;28;20200;-68
2021/03/10 14:02:05;;;;;;;0.10;0.10;;;;;;;;;;5050059;28;20327;-68
2021/03/10 14:04:32;;;;;;;3.37;3.17;;;;;;;;;;5074473;28;20220;-68
2021/03/10 14:07:00;;;;;;;0.10;0.10;;;;;;;;;;5056058;28;20512;-68
2021/03/10 14:09:27;;;;;;;0.10;0.10;;;;;;;;;;5063995;28;20226;-69
2021/03/10 14:11:53;;;;;;;0.50;0.50;;;;;;;;;;5057538;28;20237;-67
2021/03/10 14:14:20;;;;;;;0.10;0.10;;;;;;;;;;5057412;28;20294;-69
2021/03/10 14:16:46;;;;;;;0.10;0.10;;;;;;;;;;5057864;28;20261;-70
2021/03/10 14:19:13;;;;;;;0.10;0.10;;;;;;;;;;5074216;28;20202;-69
2021/03/10 14:21:39;;;;;;;0.10;0.10;;;;;;;;;;5054412;28;20205;-68
2021/03/10 14:24:07;;;;;;;0.10;0.10;;;;;;;;;;5057619;28;20198;-69
2021/03/10 14:26:34;;;;;;;0.10;0.10;;;;;;;;;;5078464;28;20203;-69
2021/03/10 14:29:00;;;;;;;0.10;0.10;;;;;;;;;;5080730;28;20200;-69
2021/03/10 14:31:27;;;;;;;4.80;4.40;;;;;;;;;;5065957;28;20201;-69
2021/03/10 14:33:53;;;;;;;1.67;1.53;;;;;;;;;;5055732;28;20207;-69
2021/03/10 14:36:20;;;;;;;0.10;0.10;;;;;;;;;;5075540;28;20200;-69
2021/03/10 14:38:47;;;;;;;0.10;0.10;;;;;;;;;;5060486;28;20198;-68
2021/03/10 14:41:14;;;;;;;0.10;0.10;;;;;;;;;;5079859;28;20241;-69
2021/03/10 14:43:40;;;;;;;0.43;0.43;;;;;;;;;;5062665;28;20200;-69